Wayne, NE

7:04 PM CST on December 22, 2014 (GMT -0600)
Courthouse Hill | Change Station
CLOSE
Current Station
Personal Weather Station
Location: Wayne, NE
Elevation: 1512 ft
Nearby Weather Stations

Elev 1512 ft 42.23 °N, 97.02 °W | Updated 14 seconds ago

Light Drizzle
Light Drizzle
35.8 °F
Feels Like 30 °F
N
7.2
Wind Variable Wind from WNW
Gusts 12.3 mph

Today
High -- | Low -- °F
--% Chance of Precip.
Yesterday
High -- | Low -- °F
Precip. -- in
7:54 AM 4:59 PM
New Moon, 1% visible
Pressure 29.46 in
Visibility 10.0 miles
Clouds Mostly Cloudy 800 ft
Mostly Cloudy 1500 ft
Overcast 2000 ft
Windchill 30 °F
Dew Point 34 °F
Humidity 94%
Rainfall 0.20 in
Snow Depth Not available.
UV 0 out of 12
Pollen .10 out of 12
Air Quality Not available.
Flu Activity Not available.
METAR KLCG 230055Z AUTO 32009KT 10SM -DZ BKN008 BKN015 OVC020 03/02 A2946 RMK AO2 T00250016

More Conditions Fewer Conditions

Pressure 29.46 in
Visibility 10.0 miles
Clouds Mostly Cloudy 800 ft
Mostly Cloudy 1500 ft
Overcast 2000 ft
Windchill 30 °F
Dew Point 34 °F
Humidity 94%
Rainfall 0.20 in
Snow Depth Not available.
UV 0 out of 12
Pollen .10 out of 12
Air Quality Not available.
Flu Activity Not available.
METAR KLCG 230055Z AUTO 32009KT 10SM -DZ BKN008 BKN015 OVC020 03/02 A2946 RMK AO2 T00250016

More Conditions Fewer Conditions

10-Day Weather Forecast

Almanac

Astronomy

Dec. 22, 2014 Rise Set
Actual Time
Civil Twilight
Nautical Twilight
Astronomical Twilight
Moon
Length of Visible Light
Length of Day
Tomorrow will be .
, % of the Moon is Illuminated

Today's Extremes

State Highs State Lows

Community

WunderPhotos

Upload Photos

1,779,742 photos uploaded!

WunderBlogs® & News

Nearby

Air Quality

  Air Quality AQ Index Pollutant
Not available.

Snow Depth

Station Depth Elevation

Earthquake Activity

City Distance Mag. Time & Date
Minimum magnitude displayed is 2.5.

Coastal Water Temperatures

Place Temperature

Nearby Weather Stations